Time;durP1;ratioP1;P1;durP2;ratioP2;P2;SDS_P1;SDS_P2;PMS_P1;PMS_P2;Temp;Humidity;BMP_temperature;BMP_pressure;BME280_temperature;BME280_humidity;BME280_pressure;Samples;Min_cycle;Max_cycle;Signal;HPM_P1;HPM_P2
2022/08/01 00:00:06;;;;;;;4.40;2.50;;;;;;;19.22;60.43;98774.06;4999257;28;20229;-61
2022/08/01 00:02:34;;;;;;;3.10;2.57;;;;;;;19.18;60.33;98773.69;4997705;28;20235;-61
2022/08/01 00:05:01;;;;;;;3.67;2.67;;;;;;;19.13;60.28;98780.59;4995899;28;20268;-61
2022/08/01 00:07:29;;;;;;;6.37;2.47;;;;;;;19.11;60.90;98786.09;5000842;28;20652;-61
2022/08/01 00:09:56;;;;;;;3.97;2.47;;;;;;;19.15;61.50;98775.91;4998403;28;20235;-61
2022/08/01 00:12:22;;;;;;;3.50;2.20;;;;;;;19.09;61.21;98782.84;4993092;28;20230;-61
2022/08/01 00:14:49;;;;;;;3.47;2.70;;;;;;;19.06;61.09;98782.44;5001360;28;20785;-61
2022/08/01 00:17:16;;;;;;;2.87;2.57;;;;;;;19.05;61.16;98778.16;5004333;28;20777;-61
2022/08/01 00:19:43;;;;;;;6.63;2.80;;;;;;;19.00;62.15;98787.53;5010732;28;20664;-60
2022/08/01 00:22:11;;;;;;;3.70;3.13;;;;;;;19.01;62.65;98781.22;5009574;28;20214;-60
2022/08/01 00:24:40;;;;;;;3.47;2.90;;;;;;;19.01;62.57;98778.56;5010827;28;20210;-60
2022/08/01 00:27:07;;;;;;;3.30;2.60;;;;;;;18.91;62.58;98778.13;5009897;28;20198;-60
2022/08/01 00:29:33;;;;;;;4.53;2.60;;;;;;;18.96;62.14;98781.00;5010724;28;20735;-60
2022/08/01 00:32:00;;;;;;;3.93;2.70;;;;;;;18.89;62.00;98785.44;5010214;28;20651;-60
2022/08/01 00:34:27;;;;;;;3.80;2.90;;;;;;;18.86;62.76;98778.69;5012261;28;20223;-60
2022/08/01 00:36:54;;;;;;;3.30;2.53;;;;;;;18.83;62.85;98778.31;5010325;28;20203;-60
2022/08/01 00:39:21;;;;;;;6.03;3.10;;;;;;;18.86;63.36;98778.69;5011647;28;20212;-60
2022/08/01 00:41:49;;;;;;;3.73;3.07;;;;;;;18.76;62.94;98780.13;5010747;28;20207;-60
2022/08/01 00:44:16;;;;;;;5.07;2.77;;;;;;;18.69;63.41;98778.28;5011545;28;20216;-60
2022/08/01 00:46:43;;;;;;;3.13;2.50;;;;;;;18.67;63.72;98772.38;5009727;28;20228;-60
2022/08/01 00:49:10;;;;;;;7.57;2.90;;;;;;;18.64;63.95;98772.78;5010290;28;20690;-60
2022/08/01 00:51:37;;;;;;;8.20;3.27;;;;;;;18.62;64.84;98777.44;5012174;28;20198;-60
2022/08/01 00:54:04;;;;;;;3.93;2.90;;;;;;;18.58;64.45;98777.00;5012203;28;20182;-60
2022/08/01 00:56:30;;;;;;;3.37;3.07;;;;;;;18.51;64.29;98764.81;5009751;28;20550;-60
2022/08/01 00:58:59;;;;;;;3.23;2.93;;;;;;;18.52;65.17;98763.78;5010012;28;20217;-60
2022/08/01 01:01:26;;;;;;;3.30;2.70;;;;;;;18.51;65.42;98764.81;5006335;28;20274;-60
2022/08/01 01:03:53;;;;;;;4.80;2.97;;;;;;;18.48;65.27;98770.50;5005273;28;20207;-61
2022/08/01 01:06:28;;;;;;;3.33;2.97;;;;;;;18.40;65.38;98771.50;5006831;28;20230;-61
2022/08/01 01:09:07;;;;;;;3.33;3.03;;;;;;;18.38;66.52;98765.59;5009861;28;20237;-61
2022/08/01 01:11:43;;;;;;;5.20;3.20;;;;;;;18.35;66.32;98763.34;5010248;28;20204;-61
2022/08/01 01:14:22;;;;;;;3.33;2.93;;;;;;;18.28;66.11;98765.94;5009674;28;20213;-61
2022/08/01 01:16:50;;;;;;;4.53;2.77;;;;;;;18.35;65.75;98772.06;5010929;28;20194;-61
2022/08/01 01:19:21;;;;;;;3.70;3.30;;;;;;;18.40;66.50;98767.00;5011831;28;20676;-61
2022/08/01 01:22:08;;;;;;;4.10;2.70;;;;;;;18.35;67.30;98776.56;5010338;28;20886;-61
2022/08/01 01:24:40;;;;;;;4.47;3.13;;;;;;;18.28;67.11;98773.88;5010015;28;20292;-61
2022/08/01 01:27:18;;;;;;;3.80;3.00;;;;;;;18.32;66.46;98764.53;5011524;28;20200;-61
2022/08/01 01:29:51;;;;;;;5.53;2.70;;;;;;;18.30;67.09;98769.19;5010193;28;20564;-61
2022/08/01 01:32:20;;;;;;;3.80;3.10;;;;;;;18.42;67.09;98777.41;5008884;28;20195;-61
2022/08/01 01:34:50;;;;;;;5.93;3.17;;;;;;;18.38;67.04;98778.81;5010809;28;20206;-61
2022/08/01 01:37:20;;;;;;;4.23;3.40;;;;;;;18.35;67.28;98776.56;5009832;28;20706;-61
2022/08/01 01:39:50;;;;;;;3.13;2.83;;;;;;;18.28;67.93;98776.50;4993240;28;20222;-61
2022/08/01 01:42:18;;;;;;;5.00;3.10;;;;;;;18.35;68.13;98785.28;5010996;28;20194;-61
2022/08/01 01:44:48;;;;;;;3.93;3.00;;;;;;;18.26;68.27;98768.78;5011097;28;20220;-61
2022/08/01 01:47:17;;;;;;;3.63;3.10;;;;;;;18.23;68.62;98776.28;5010049;28;20186;-61
2022/08/01 01:49:47;;;;;;;5.30;3.00;;;;;;;18.18;68.34;98774.25;5009851;28;20226;-61
2022/08/01 01:52:17;;;;;;;3.80;2.90;;;;;;;18.10;69.30;98775.22;5008461;28;20256;-61
2022/08/01 01:54:48;;;;;;;6.17;2.90;;;;;;;18.13;70.12;98772.19;5011385;28;20194;-61
2022/08/01 01:57:17;;;;;;;3.47;3.13;;;;;;;18.07;69.86;98767.69;5011735;28;20195;-61
2022/08/01 01:59:47;;;;;;;4.17;2.90;;;;;;;18.05;70.90;98772.34;5011484;28;20240;-62
2022/08/01 02:02:16;;;;;;;4.30;2.87;;;;;;;18.11;70.69;98770.75;5011305;28;20599;-62
2022/08/01 02:04:44;;;;;;;3.97;2.97;;;;;;;18.03;70.42;98769.06;5011648;28;20209;-62
2022/08/01 02:07:13;;;;;;;5.50;3.00;;;;;;;17.98;70.09;98769.66;5009749;28;20205;-61
2022/08/01 02:09:43;;;;;;;5.30;2.97;;;;;;;17.93;71.27;98766.78;5009860;28;20238;-61
2022/08/01 02:12:11;;;;;;;3.37;2.97;;;;;;;17.88;71.01;98760.47;5008951;28;20596;-61
2022/08/01 02:14:40;;;;;;;5.13;3.00;;;;;;;17.91;72.53;98774.06;5011537;28;20204;-61
2022/08/01 02:17:11;;;;;;;4.87;3.13;;;;;;;17.84;72.06;98765.31;5011442;28;20662;-61
2022/08/01 02:19:38;;;;;;;3.93;2.90;;;;;;;17.75;72.59;98764.66;5010860;28;20283;-61
2022/08/01 02:22:10;;;;;;;4.00;2.90;;;;;;;17.77;73.13;98762.63;4992452;28;20201;-61
2022/08/01 02:24:41;;;;;;;5.37;3.07;;;;;;;17.67;73.25;98762.97;4993255;28;20742;-61
2022/08/01 02:27:11;;;;;;;4.17;2.73;;;;;;;17.63;72.84;98763.56;4993961;28;20593;-61
2022/08/01 02:29:41;;;;;;;5.00;3.13;;;;;;;17.61;73.70;98758.47;4994118;28;20738;-61
2022/08/01 02:32:15;;;;;;;3.40;3.00;;;;;;;17.60;73.89;98761.31;4991483;28;22543;-61
2022/08/01 02:34:45;;;;;;;5.33;2.80;;;;;;;17.60;73.56;98761.31;4993260;28;20212;-61
2022/08/01 02:37:11;;;;;;;3.07;2.77;;;;;;;17.66;73.84;98765.81;4990536;28;20198;-61
2022/08/01 02:39:39;;;;;;;5.00;3.30;;;;;;;17.66;73.38;98758.69;4994153;28;20225;-61
2022/08/01 02:42:09;;;;;;;3.77;2.97;;;;;;;17.57;73.30;98762.50;4995892;28;20197;-61
2022/08/01 02:44:40;;;;;;;3.37;3.00;;;;;;;17.56;73.73;98760.88;4989775;28;20244;-61
2022/08/01 02:47:07;;;;;;;3.07;2.60;;;;;;;17.59;74.35;98760.47;4991246;28;20205;-61
2022/08/01 02:49:38;;;;;;;3.30;3.00;;;;;;;17.58;74.59;98769.41;4990650;28;20231;-61
2022/08/01 02:52:09;;;;;;;4.43;3.27;;;;;;;17.53;74.08;98770.00;4993894;28;20656;-61
2022/08/01 02:54:37;;;;;;;4.70;2.83;;;;;;;17.58;74.90;98765.97;4994314;28;20202;-61
2022/08/01 02:57:07;;;;;;;2.73;2.53;;;;;;;17.54;75.10;98779.53;4993930;28;20195;-61
2022/08/01 02:59:37;;;;;;;3.43;2.80;;;;;;;17.46;74.90;98771.78;4991379;28;20877;-61
2022/08/01 03:02:05;;;;;;;3.70;2.53;;;;;;;17.45;75.54;98772.78;4993345;28;20197;-61
2022/08/01 03:04:36;;;;;;;5.13;3.07;;;;;;;17.49;75.45;98774.03;4992806;28;20199;-61
2022/08/01 03:07:05;;;;;;;4.93;3.07;;;;;;;17.44;75.64;98771.16;4997393;28;20201;-61
2022/08/01 03:09:37;;;;;;;4.73;2.70;;;;;;;17.41;75.69;98775.00;4992464;28;20232;-61
2022/08/01 03:12:07;;;;;;;3.90;2.50;;;;;;;17.47;76.68;98772.59;4993237;28;20204;-61
2022/08/01 03:14:37;;;;;;;3.37;2.73;;;;;;;17.44;76.22;98776.44;4942568;28;20222;-61
2022/08/01 03:17:05;;;;;;;3.20;2.90;;;;;;;17.33;75.76;98769.03;4990730;28;20197;-61
2022/08/01 03:19:34;;;;;;;2.80;2.60;;;;;;;17.32;77.11;98773.50;4997171;28;20216;-61
2022/08/01 03:22:03;;;;;;;5.93;2.40;;;;;;;17.31;77.30;98766.59;4994795;28;20216;-61
2022/08/01 03:24:31;;;;;;;4.17;2.77;;;;;;;17.32;77.53;98775.31;4997797;28;20603;-61
2022/08/01 03:26:59;;;;;;;3.33;2.43;;;;;;;17.35;77.83;98767.00;4985203;28;20760;-61
2022/08/01 03:29:29;;;;;;;2.77;2.37;;;;;;;17.32;77.69;98778.78;5002941;28;20224;-61
2022/08/01 03:31:58;;;;;;;3.73;2.87;;;;;;;17.30;78.17;98770.25;4998741;28;20679;-61
2022/08/01 03:34:25;;;;;;;3.10;2.47;;;;;;;17.26;78.03;98769.00;4995311;28;20197;-61
2022/08/01 03:36:56;;;;;;;2.40;2.10;;;;;;;17.21;78.23;98766.91;4993790;28;20623;-61
2022/08/01 03:39:30;;;;;;;3.67;2.37;;;;;;;17.31;78.33;98768.41;4997691;28;20218;-61
2022/08/01 03:42:02;;;;;;;3.50;2.20;;;;;;;17.31;78.08;98771.03;4995922;28;20192;-61
2022/08/01 03:44:34;;;;;;;3.27;2.67;;;;;;;17.24;77.73;98763.09;4998698;28;20538;-61
2022/08/01 03:47:06;;;;;;;3.63;2.37;;;;;;;17.23;78.03;98766.72;4998792;28;20814;-61
2022/08/01 03:49:38;;;;;;;2.80;2.10;;;;;;;17.21;78.18;98766.09;5000374;28;20703;-61
2022/08/01 03:52:07;;;;;;;2.60;2.33;;;;;;;17.25;78.83;98765.53;4998841;28;20203;-61
2022/08/01 03:54:37;;;;;;;3.30;2.40;;;;;;;17.40;78.52;98769.91;5001882;28;20232;-61
2022/08/01 03:57:05;;;;;;;4.63;2.37;;;;;;;17.47;78.31;98765.50;4999398;28;20206;-61
2022/08/01 03:59:36;;;;;;;4.80;2.70;;;;;;;17.50;77.84;98764.28;4996114;28;21194;-61
2022/08/01 04:02:04;;;;;;;4.57;2.50;;;;;;;17.56;77.00;98766.97;4996664;28;20208;-61
2022/08/01 04:04:31;;;;;;;3.03;2.20;;;;;;;17.62;77.60;98768.00;4999906;28;20193;-61
2022/08/01 04:07:03;;;;;;;3.53;2.07;;;;;;;17.72;77.39;98759.75;4978769;28;20228;-61
2022/08/01 04:09:30;;;;;;;8.40;2.63;;;;;;;17.83;76.41;98761.03;4998669;28;20301;-61
2022/08/01 04:11:59;;;;;;;4.40;2.53;;;;;;;17.88;76.78;98760.47;4997981;28;20268;-61
2022/08/01 04:14:25;;;;;;;4.83;2.50;;;;;;;17.92;76.98;98765.16;4999923;28;20201;-61
2022/08/01 04:16:52;;;;;;;4.50;2.40;;;;;;;17.91;76.26;98773.28;5001960;28;20189;-61
2022/08/01 04:19:19;;;;;;;2.23;2.03;;;;;;;17.96;76.08;98774.31;5003126;28;20218;-61
2022/08/01 04:21:46;;;;;;;2.27;2.00;;;;;;;18.03;75.66;98777.00;5000251;28;20201;-61
2022/08/01 04:24:17;;;;;;;2.40;2.20;;;;;;;18.10;76.37;98771.78;4993891;28;20211;-61
2022/08/01 04:26:46;;;;;;;3.57;2.00;;;;;;;18.17;76.52;98772.63;4996844;28;20229;-61
2022/08/01 04:29:16;;;;;;;3.53;2.10;;;;;;;18.15;76.02;98777.28;5001541;28;20209;-61
2022/08/01 04:31:45;;;;;;;5.67;2.20;;;;;;;18.10;76.31;98780.50;5000850;28;20206;-61
2022/08/01 04:34:34;;;;;;;3.77;2.23;;;;;;;18.16;76.39;98789.47;5003931;28;20248;-61
2022/08/01 04:37:02;;;;;;;3.27;2.20;;;;;;;18.16;76.17;98789.47;5000673;28;20187;-61
2022/08/01 04:39:33;;;;;;;2.70;2.10;;;;;;;18.17;75.61;98787.63;5002746;28;20207;-61
2022/08/01 04:42:03;;;;;;;3.70;2.33;;;;;;;18.20;75.46;98793.38;4999781;28;20230;-61
2022/08/01 04:44:32;;;;;;;4.17;2.77;;;;;;;18.26;76.15;98795.22;4994877;28;20195;-61
2022/08/01 04:47:00;;;;;;;3.20;2.10;;;;;;;18.36;76.10;98791.41;4996195;28;20204;-61
2022/08/01 04:49:27;;;;;;;3.20;1.80;;;;;;;18.44;76.05;98789.38;4999397;28;20223;-61
2022/08/01 04:51:57;;;;;;;3.30;2.07;;;;;;;18.54;75.58;98796.13;4998081;28;20206;-61
2022/08/01 04:54:25;;;;;;;4.27;2.37;;;;;;;18.59;75.66;98791.06;4999265;28;21310;-61
2022/08/01 04:56:53;;;;;;;7.10;2.00;;;;;;;18.67;75.46;98793.53;5001454;28;20207;-61
2022/08/01 05:02:06;;;;;;;1.90;1.80;;;;;;;18.87;74.55;98793.56;5000121;28;20298;-61
2022/08/01 05:04:32;;;;;;;3.10;1.97;;;;;;;18.89;74.99;98790.72;5001040;28;20225;-61
2022/08/01 05:06:59;;;;;;;2.90;2.23;;;;;;;18.94;74.05;98782.19;4995056;28;20209;-61
2022/08/01 05:09:26;;;;;;;3.00;2.37;;;;;;;18.92;74.15;98795.63;4995188;28;21795;-61
2022/08/01 05:11:53;;;;;;;6.53;2.07;;;;;;;18.92;74.28;98785.03;4998315;28;20205;-61
2022/08/01 05:14:20;;;;;;;2.70;2.30;;;;;;;18.91;74.39;98788.69;4996575;28;20223;-61
2022/08/01 05:16:47;;;;;;;2.30;1.93;;;;;;;18.88;74.30;98794.38;4999509;28;20187;-61
2022/08/01 05:19:16;;;;;;;3.77;2.60;;;;;;;18.87;75.66;98790.91;5002627;28;20223;-61
2022/08/01 05:21:42;;;;;;;2.87;2.20;;;;;;;18.87;74.53;98793.56;5001892;28;20249;-61
2022/08/01 05:24:09;;;;;;;3.30;2.33;;;;;;;18.88;75.08;98797.03;4997027;28;20331;-61
2022/08/01 05:26:37;;;;;;;5.57;2.10;;;;;;;18.92;75.01;98798.25;4997828;28;20221;-61
2022/08/01 05:29:04;;;;;;;3.77;2.50;;;;;;;18.94;75.13;98803.34;5000231;28;20220;-61
2022/08/01 05:31:33;;;;;;;2.63;2.23;;;;;;;19.02;74.91;98801.38;4980077;28;20215;-61
2022/08/01 05:34:21;;;;;;;3.10;1.90;;;;;;;19.17;75.29;98797.69;4994570;28;20568;-61
2022/08/01 05:36:48;;;;;;;7.50;2.27;;;;;;;19.25;75.00;98802.78;4995785;28;20199;-61
2022/08/01 05:39:15;;;;;;;5.10;2.20;;;;;;;19.33;73.83;98807.06;4998208;28;20217;-61
2022/08/01 05:41:42;;;;;;;2.77;2.20;;;;;;;19.41;73.79;98806.03;4999967;28;20195;-61
2022/08/01 05:44:09;;;;;;;3.33;2.00;;;;;;;19.53;73.46;98808.91;5000663;28;20192;-61
2022/08/01 05:46:36;;;;;;;3.67;2.03;;;;;;;19.65;72.74;98809.88;5001943;28;20694;-61
2022/08/01 05:49:05;;;;;;;4.37;2.17;;;;;;;19.81;72.05;98810.47;5000696;28;20232;-61
2022/08/01 05:51:34;;;;;;;4.60;2.20;;;;;;;19.89;72.27;98810.28;4995477;28;20652;-61
2022/08/01 05:54:00;;;;;;;3.57;2.30;;;;;;;19.83;71.01;98811.91;5002144;28;20193;-61
2022/08/01 05:56:27;;;;;;;2.33;2.13;;;;;;;19.89;71.25;98805.00;4997474;28;20206;-61
2022/08/01 05:58:54;;;;;;;2.60;2.00;;;;;;;19.97;71.25;98806.63;4994118;28;20304;-61
2022/08/01 06:01:21;;;;;;;2.50;2.30;;;;;;;20.01;70.89;98811.28;4998743;28;20194;-61
2022/08/01 06:03:48;;;;;;;3.70;2.50;;;;;;;20.16;69.72;98810.22;4999598;28;20187;-61
2022/08/01 06:06:15;;;;;;;2.30;2.10;;;;;;;20.27;70.15;98808.75;5001268;28;20570;-61
2022/08/01 06:08:43;;;;;;;4.90;2.20;;;;;;;20.38;69.84;98810.75;5001964;28;21121;-61
2022/08/01 06:11:09;;;;;;;3.90;2.37;;;;;;;20.43;69.33;98805.63;4997928;28;20201;-61
2022/08/01 06:13:36;;;;;;;2.73;2.07;;;;;;;20.57;68.94;98805.56;4997851;28;20208;-61
2022/08/01 06:16:03;;;;;;;3.97;1.90;;;;;;;20.72;68.45;98814.06;4998888;28;20209;-61
2022/08/01 06:18:30;;;;;;;2.57;2.30;;;;;;;20.86;67.51;98803.41;4998460;28;20225;-61
2022/08/01 06:20:57;;;;;;;4.63;2.20;;;;;;;21.00;66.31;98804.13;5001367;28;20186;-61
2022/08/01 06:23:24;;;;;;;3.10;2.43;;;;;;;21.15;66.01;98801.19;4992932;28;20207;-61
2022/08/01 06:25:54;;;;;;;2.30;2.10;;;;;;;21.29;65.29;98810.66;4996794;28;20209;-61
2022/08/01 06:28:21;;;;;;;3.30;1.83;;;;;;;21.44;64.69;98809.50;4998447;28;20238;-61
2022/08/01 06:30:48;;;;;;;2.40;2.20;;;;;;;21.61;64.08;98810.59;4997093;28;20700;-61
2022/08/01 06:33:15;;;;;;;3.87;2.10;;;;;;;21.83;62.24;98815.53;4997812;28;20189;-61
2022/08/01 06:35:43;;;;;;;2.40;2.17;;;;;;;21.99;61.80;98813.34;4993884;28;20191;-62
2022/08/01 06:38:09;;;;;;;4.27;2.10;;;;;;;22.15;61.21;98812.75;4999724;28;20223;-61
2022/08/01 06:40:38;;;;;;;3.83;1.90;;;;;;;22.24;60.63;98816.72;4998581;28;20547;-62
2022/08/01 06:43:06;;;;;;;4.70;1.80;;;;;;;22.37;60.73;98826.38;4999867;28;20200;-62
2022/08/01 06:45:33;;;;;;;8.23;2.40;;;;;;;22.51;59.94;98826.25;4997668;28;20739;-62
2022/08/01 06:47:59;;;;;;;4.03;1.90;;;;;;;22.62;59.61;98817.53;4994130;28;20266;-61
2022/08/01 06:50:26;;;;;;;4.77;2.00;;;;;;;22.73;59.59;98821.25;4996545;28;20200;-61
2022/08/01 06:52:53;;;;;;;5.40;2.10;;;;;;;22.83;59.03;98826.84;4996374;28;20188;-62
2022/08/01 06:55:20;;;;;;;2.60;2.10;;;;;;;22.78;59.16;98826.72;5000350;28;20338;-61
2022/08/01 06:57:48;;;;;;;5.70;2.37;;;;;;;23.00;58.36;98828.88;5003950;28;20180;-61
2022/08/01 07:00:20;;;;;;;2.93;2.20;;;;;;;23.00;58.63;98831.53;4996980;28;20295;-60
2022/08/01 07:02:47;;;;;;;3.00;2.20;;;;;;;23.05;58.52;98829.00;4999086;28;20196;-60
2022/08/01 07:05:14;;;;;;;4.77;2.30;;;;;;;22.98;58.32;98829.06;5002392;28;20196;-60
2022/08/01 07:07:44;;;;;;;3.00;2.20;;;;;;;23.25;57.93;98819.94;4981784;28;20221;-60
2022/08/01 07:10:11;;;;;;;3.40;2.30;;;;;;;23.52;57.52;98828.28;4998124;28;20207;-59
2022/08/01 07:12:40;;;;;;;5.37;2.40;;;;;;;23.73;56.27;98829.56;5000084;28;20202;-60
2022/08/01 07:15:08;;;;;;;4.87;2.57;;;;;;;23.69;55.71;98839.06;5001786;28;20263;-60
2022/08/01 07:17:39;;;;;;;6.40;2.23;;;;;;;23.51;56.40;98826.66;5005096;28;20207;-60
2022/08/01 07:20:08;;;;;;;2.40;2.20;;;;;;;23.21;57.61;98824.06;5004167;28;20275;-60
2022/08/01 07:22:35;;;;;;;2.83;1.93;;;;;;;23.20;57.62;98825.88;5001741;28;20200;-60
2022/08/01 07:25:02;;;;;;;3.60;2.40;;;;;;;23.22;57.22;98828.34;4998556;28;20189;-60
2022/08/01 07:27:47;;;;;;;3.50;2.20;;;;;;;23.34;56.85;98825.72;4999012;28;20732;-60
2022/08/01 07:30:14;;;;;;;4.90;2.50;;;;;;;23.39;57.48;98826.63;5003490;28;20629;-60
2022/08/01 07:32:42;;;;;;;2.43;2.10;;;;;;;23.61;56.30;98828.75;5004082;28;20200;-61
2022/08/01 07:35:10;;;;;;;3.97;2.50;;;;;;;23.47;56.66;98828.16;5000178;28;21252;-60
2022/08/01 07:37:36;;;;;;;4.77;2.70;;;;;;;23.62;56.19;98827.69;4999397;28;20195;-60
2022/08/01 07:40:05;;;;;;;2.50;2.20;;;;;;;23.58;56.48;98822.03;5002952;28;20238;-60
2022/08/01 07:42:31;;;;;;;4.80;2.57;;;;;;;23.70;56.64;98829.22;5002017;28;20189;-61
2022/08/01 07:44:59;;;;;;;3.53;2.40;;;;;;;23.77;55.58;98823.75;4997558;28;20567;-60
2022/08/01 07:47:26;;;;;;;3.73;2.20;;;;;;;23.67;55.78;98821.69;4998540;28;20241;-59
2022/08/01 07:50:00;;;;;;;5.00;2.70;;;;;;;23.45;56.53;98816.94;4999907;28;20275;-61
2022/08/01 07:52:27;;;;;;;2.20;2.00;;;;;;;23.46;56.88;98823.06;5000811;28;20230;-61
2022/08/01 07:54:54;;;;;;;2.63;2.23;;;;;;;23.51;57.00;98817.84;5001400;28;20196;-61
2022/08/01 07:57:21;;;;;;;3.07;2.40;;;;;;;23.78;56.49;98822.72;5003709;28;20192;-61
2022/08/01 07:59:47;;;;;;;5.00;2.20;;;;;;;23.97;56.86;98823.38;5000961;28;20234;-60
2022/08/01 08:02:14;;;;;;;4.43;2.40;;;;;;;24.18;56.04;98816.66;4999297;28;22117;-60
2022/08/01 08:04:42;;;;;;;2.47;2.17;;;;;;;24.24;55.10;98818.41;5003537;28;20200;-60
2022/08/01 08:07:10;;;;;;;2.83;2.50;;;;;;;24.31;55.03;98818.25;5002221;28;20227;-61
2022/08/01 08:09:37;;;;;;;5.03;2.57;;;;;;;24.28;55.51;98814.22;4999867;28;20800;-61
2022/08/01 08:12:04;;;;;;;3.80;2.30;;;;;;;24.39;54.22;98817.06;4999325;28;20188;-61
2022/08/01 08:14:31;;;;;;;4.13;2.00;;;;;;;24.45;53.51;98814.25;4999916;28;20192;-61
2022/08/01 08:16:58;;;;;;;4.33;2.70;;;;;;;24.39;54.24;98817.88;5000413;28;20195;-61
2022/08/01 08:19:25;;;;;;;4.40;2.40;;;;;;;24.46;54.07;98799.88;5003049;28;20215;-60
2022/08/01 08:21:51;;;;;;;4.13;2.33;;;;;;;24.32;54.99;98804.69;5003817;28;20543;-60
2022/08/01 08:24:23;;;;;;;3.43;2.27;;;;;;;24.27;54.26;98801.94;4997530;28;20658;-60
2022/08/01 08:26:54;;;;;;;2.57;2.30;;;;;;;24.41;54.46;98801.63;5000414;28;20230;-60
2022/08/01 08:29:22;;;;;;;2.70;1.90;;;;;;;24.59;53.67;98803.31;5007656;28;20328;-60
2022/08/01 08:31:48;;;;;;;2.30;2.10;;;;;;;24.65;53.67;98805.03;5001581;28;20626;-60
2022/08/01 08:34:15;;;;;;;6.07;2.10;;;;;;;24.75;53.15;98810.59;4998343;28;20254;-60
2022/08/01 08:36:42;;;;;;;3.53;2.03;;;;;;;24.81;52.00;98811.47;5002337;28;20194;-60
2022/08/01 08:39:09;;;;;;;2.83;2.53;;;;;;;24.78;52.18;98813.81;4999242;28;20245;-60
2022/08/01 08:41:37;;;;;;;6.30;2.27;;;;;;;24.63;53.54;98804.47;5001110;28;20200;-61
2022/08/01 08:44:05;;;;;;;5.23;2.80;;;;;;;24.65;53.44;98806.88;5000409;28;20208;-61
2022/08/01 08:46:33;;;;;;;4.80;2.37;;;;;;;24.82;52.96;98801.63;4999071;28;20218;-61
2022/08/01 08:49:02;;;;;;;5.00;2.50;;;;;;;25.09;52.30;98809.00;4999866;28;20252;-61
2022/08/01 08:51:50;;;;;;;2.30;2.10;;;;;;;25.14;51.76;98803.72;5000740;28;20203;-60
2022/08/01 08:54:20;;;;;;;4.80;2.67;;;;;;;25.16;51.76;98804.31;4997749;28;20193;-60
2022/08/01 08:56:51;;;;;;;6.13;3.23;;;;;;;25.01;52.69;98791.53;4995479;28;20259;-61
2022/08/01 08:59:18;;;;;;;2.50;2.27;;;;;;;25.24;52.50;98803.91;4999780;28;20221;-61
2022/08/01 09:01:45;;;;;;;3.83;2.43;;;;;;;25.31;52.04;98799.22;5001466;28;20290;-61
2022/08/01 09:04:12;;;;;;;2.63;2.20;;;;;;;25.36;52.07;98795.81;5000243;28;20199;-60
2022/08/01 09:06:39;;;;;;;3.53;2.73;;;;;;;25.55;52.06;98792.88;5001122;28;20234;-59
2022/08/01 09:09:07;;;;;;;4.60;2.63;;;;;;;25.63;50.91;98800.50;5001430;28;20238;-60
2022/08/01 09:11:35;;;;;;;3.93;2.60;;;;;;;25.90;49.56;98797.13;5001670;28;20235;-60
2022/08/01 09:14:05;;;;;;;4.22;2.55;;;;;;;25.74;49.88;98807.59;4981455;28;20290;-59
2022/08/01 09:16:32;;;;;;;4.28;3.10;;;;;;;25.54;50.78;98805.47;5001136;28;20939;-60
2022/08/01 09:19:15;;;;;;;4.73;3.43;;;;;;;25.44;50.73;98805.28;4992855;28;20576;-60
2022/08/01 09:21:57;;;;;;;3.40;3.00;;;;;;;25.55;50.74;98808.94;4992977;28;20203;-59
2022/08/01 09:24:26;;;;;;;3.92;2.65;;;;;;;25.99;49.91;98800.16;4996941;28;20207;-60
2022/08/01 09:26:53;;;;;;;3.83;3.10;;;;;;;26.31;49.78;98805.69;4997827;28;21635;-60
2022/08/01 09:29:23;;;;;;;4.83;3.50;;;;;;;26.58;48.54;98820.94;4995378;28;20228;-60
2022/08/01 09:31:51;;;;;;;4.25;3.08;;;;;;;26.63;48.32;98818.31;4998074;28;20198;-60
2022/08/01 09:34:25;;;;;;;5.77;3.50;;;;;;;26.80;47.44;98820.09;5001858;28;20296;-60
2022/08/01 09:36:55;;;;;;;5.32;3.22;;;;;;;26.87;45.77;98823.41;5001601;28;20237;-60
2022/08/01 09:39:24;;;;;;;4.77;3.30;;;;;;;26.74;46.89;98813.06;5000151;28;20216;-60
2022/08/01 09:41:52;;;;;;;4.90;3.20;;;;;;;26.63;47.64;98812.97;4994937;28;20206;-60
2022/08/01 09:44:20;;;;;;;4.22;3.70;;;;;;;26.92;46.66;98823.47;4993911;28;20253;-60
2022/08/01 09:47:07;;;;;;;4.20;3.00;;;;;;;26.94;46.76;98813.28;4996582;28;20195;-60
2022/08/01 09:49:36;;;;;;;3.40;3.10;;;;;;;27.11;46.12;98810.47;4997044;28;20210;-60
2022/08/01 09:52:12;;;;;;;4.43;3.08;;;;;;;27.68;45.34;98820.81;4998187;28;20201;-60
2022/08/01 09:54:40;;;;;;;4.47;3.13;;;;;;;27.56;44.70;98807.63;4998607;28;20190;-60
2022/08/01 09:57:12;;;;;;;3.33;2.70;;;;;;;28.01;43.31;98810.81;5000580;28;20186;-60
2022/08/01 09:59:59;;;;;;;5.07;2.92;;;;;;;27.51;44.54;98808.41;4999936;28;20234;-60
2022/08/01 10:02:35;;;;;;;5.10;3.10;;;;;;;27.74;44.34;98819.00;4983604;28;20297;-60
2022/08/01 10:05:03;;;;;;;3.30;2.80;;;;;;;27.66;44.00;98812.22;4997990;28;20249;-60
2022/08/01 10:07:30;;;;;;;5.07;3.10;;;;;;;27.58;44.02;98805.50;4985201;28;20223;-60
2022/08/01 10:10:10;;;;;;;5.47;3.20;;;;;;;27.37;44.67;98812.56;4997278;28;20227;-60
2022/08/01 10:12:38;;;;;;;3.28;2.95;;;;;;;27.26;45.37;98807.13;4996137;28;20199;-60
2022/08/01 10:15:06;;;;;;;4.07;2.95;;;;;;;27.17;45.50;98810.53;4997534;28;20202;-61
2022/08/01 10:17:35;;;;;;;5.07;3.55;;;;;;;26.71;45.90;98806.38;4996217;28;20194;-60
2022/08/01 10:20:21;;;;;;;4.30;3.50;;;;;;;26.88;45.43;98800.13;5000872;28;20572;-60
2022/08/01 10:22:50;;;;;;;4.97;3.47;;;;;;;26.57;46.46;98805.94;4997909;28;20198;-59
2022/08/01 10:25:18;;;;;;;4.43;3.53;;;;;;;26.90;45.08;98803.34;5000754;28;20204;-60
2022/08/01 10:27:47;;;;;;;3.53;2.92;;;;;;;27.11;44.80;98797.09;4998374;28;20210;-60
2022/08/01 10:30:14;;;;;;;3.67;3.10;;;;;;;27.02;44.41;98798.66;4999812;28;20636;-60
2022/08/01 10:33:01;;;;;;;6.57;3.30;;;;;;;26.94;44.59;98794.53;4996462;28;20215;-60
2022/08/01 10:35:28;;;;;;;4.60;3.60;;;;;;;27.00;44.95;98791.91;4996474;28;20204;-60
2022/08/01 10:37:57;;;;;;;3.30;3.00;;;;;;;27.45;43.82;98787.16;5000131;28;20193;-60
2022/08/01 10:40:24;;;;;;;4.78;3.08;;;;;;;27.87;43.84;98782.84;5001565;28;20310;-60
2022/08/01 10:42:52;;;;;;;5.00;3.33;;;;;;;28.06;42.61;98785.91;5002486;28;20216;-60
2022/08/01 10:45:19;;;;;;;3.85;3.03;;;;;;;28.55;40.54;98782.03;5000215;28;20660;-60
2022/08/01 10:47:54;;;;;;;3.67;3.20;;;;;;;28.85;39.86;98783.16;4998351;28;20661;-60
2022/08/01 10:50:28;;;;;;;3.83;3.00;;;;;;;28.61;39.99;98785.53;4999910;28;20203;-60
2022/08/01 10:53:07;;;;;;;4.38;2.95;;;;;;;28.60;39.47;98784.72;4998922;28;20220;-60
2022/08/01 10:55:47;;;;;;;3.90;3.00;;;;;;;28.11;40.89;98781.34;4998079;28;20196;-60
2022/08/01 10:58:14;;;;;;;3.80;3.22;;;;;;;28.01;40.55;98780.50;4998615;28;20212;-60
2022/08/01 11:00:41;;;;;;;3.88;3.47;;;;;;;28.38;40.16;98787.63;4997218;28;20268;-60
2022/08/01 11:03:08;;;;;;;3.75;3.10;;;;;;;28.10;40.84;98778.91;4995955;28;20215;-61
2022/08/01 11:05:36;;;;;;;5.43;3.03;;;;;;;27.47;43.10;98779.66;4992771;28;20244;-60
2022/08/01 11:08:10;;;;;;;3.50;3.20;;;;;;;27.38;43.89;98773.97;4996807;28;20219;-60
2022/08/01 11:10:42;;;;;;;3.60;2.88;;;;;;;27.42;43.56;98777.75;4997778;28;20836;-60
2022/08/01 11:13:11;;;;;;;3.20;2.90;;;;;;;27.45;44.07;98777.25;5002113;28;20203;-60
2022/08/01 11:15:37;;;;;;;3.08;2.78;;;;;;;27.88;43.24;98771.88;4998444;28;20208;-60
2022/08/01 11:18:24;;;;;;;4.25;3.05;;;;;;;28.31;42.37;98774.47;4995140;28;20908;-60
2022/08/01 11:20:58;;;;;;;4.32;3.35;;;;;;;28.45;41.45;98777.44;4993060;28;20191;-60
2022/08/01 11:23:32;;;;;;;5.25;3.10;;;;;;;28.10;41.81;98769.00;4996490;28;20692;-60
2022/08/01 11:26:10;;;;;;;5.03;3.05;;;;;;;28.10;42.53;98757.44;4996502;28;20208;-60
2022/08/01 11:28:37;;;;;;;5.97;3.72;;;;;;;28.26;42.54;98758.34;4995189;28;20680;-61
2022/08/01 11:31:29;;;;;;;3.50;2.90;;;;;;;28.62;41.94;98757.59;4997247;28;20580;-61
2022/08/01 11:33:56;;;;;;;3.33;2.88;;;;;;;28.82;40.94;98746.91;4996526;28;20212;-61
2022/08/01 11:36:24;;;;;;;4.03;2.75;;;;;;;29.12;40.61;98749.84;4997294;28;20201;-61
2022/08/01 11:39:16;;;;;;;5.18;3.10;;;;;;;29.05;40.18;98749.31;4999432;28;20693;-61
2022/08/01 11:41:45;;;;;;;2.80;2.60;;;;;;;29.31;38.68;98740.13;4994716;28;20207;-61
2022/08/01 11:44:14;;;;;;;4.78;2.92;;;;;;;29.70;38.95;98738.72;4995453;28;20216;-60
2022/08/01 11:47:03;;;;;;;3.00;2.67;;;;;;;30.13;37.07;98743.66;4994616;28;20208;-57